Terminal Aerodrome Forecast
Issued by NWS

Home | Current Version | Previous Version | Text Only | Print | Product List | Glossary On
Versions: 1 2 3 4 5 6 7 8 9 10 11 12 13 14 15 16 17 18 19 20 21 22 23 24 25 26 27 28 29 30
294
FTUS45 KGJT 060520
TAFEGE
TAF
KEGE 060520Z 0606/0706 VRB02KT P6SM FEW200
     FM061400 00000KT 6SM BR FEW010
     FM061600 00000KT P6SM SKC
     FM070200 11006KT P6SM SKC
      AMD LTD TO CLD VIS AND WIND TIL 061400=

USA.gov is the U.S. government's official web portal to all federal, state and local government web resources and services.